sensor_id;sensor_type;location;lat;lon;timestamp;pressure;altitude;pressure_sealevel;temperature
19568;BMP280;9930;49.240;8.548;2022-12-18T00:00:10;101818.13;;;-3.25
19568;BMP280;9930;49.240;8.548;2022-12-18T00:02:39;101829.31;;;-3.14
19568;BMP280;9930;49.240;8.548;2022-12-18T00:05:09;101828.59;;;-3.13
19568;BMP280;9930;49.240;8.548;2022-12-18T00:07:39;101819.72;;;-3.18
19568;BMP280;9930;49.240;8.548;2022-12-18T00:10:10;101831.44;;;-3.10
19568;BMP280;9930;49.240;8.548;2022-12-18T00:12:44;101830.56;;;-3.11
19568;BMP280;9930;49.240;8.548;2022-12-18T00:15:15;101825.06;;;-3.15
19568;BMP280;9930;49.240;8.548;2022-12-18T00:17:40;101822.38;;;-3.17
19568;BMP280;9930;49.240;8.548;2022-12-18T00:20:09;101819.50;;;-3.13
19568;BMP280;9930;49.240;8.548;2022-12-18T00:22:39;101818.81;;;-3.12
19568;BMP280;9930;49.240;8.548;2022-12-18T00:25:09;101832.31;;;-3.03
19568;BMP280;9930;49.240;8.548;2022-12-18T00:27:38;101838.38;;;-3.01
19568;BMP280;9930;49.240;8.548;2022-12-18T00:30:11;101831.97;;;-3.06
19568;BMP280;9930;49.240;8.548;2022-12-18T00:32:42;101833.38;;;-3.01
19568;BMP280;9930;49.240;8.548;2022-12-18T00:35:13;101815.41;;;-3.05
19568;BMP280;9930;49.240;8.548;2022-12-18T00:37:39;101837.28;;;-2.96
19568;BMP280;9930;49.240;8.548;2022-12-18T00:40:15;101844.97;;;-2.94
19568;BMP280;9930;49.240;8.548;2022-12-18T00:42:41;101839.06;;;-2.95
19568;BMP280;9930;49.240;8.548;2022-12-18T00:45:30;101842.28;;;-2.96
19568;BMP280;9930;49.240;8.548;2022-12-18T00:47:56;101844.97;;;-2.94
19568;BMP280;9930;49.240;8.548;2022-12-18T00:50:25;101828.56;;;-2.99
19568;BMP280;9930;49.240;8.548;2022-12-18T00:52:51;101839.25;;;-2.93
19568;BMP280;9930;49.240;8.548;2022-12-18T00:55:18;101847.59;;;-2.85
19568;BMP280;9930;49.240;8.548;2022-12-18T00:57:44;101837.81;;;-2.91
19568;BMP280;9930;49.240;8.548;2022-12-18T01:00:13;101854.38;;;-2.84
19568;BMP280;9930;49.240;8.548;2022-12-18T01:02:40;101844.03;;;-2.87
19568;BMP280;9930;49.240;8.548;2022-12-18T01:05:11;101826.94;;;-2.91
19568;BMP280;9930;49.240;8.548;2022-12-18T01:07:40;101836.72;;;-2.86
19568;BMP280;9930;49.240;8.548;2022-12-18T01:10:15;101827.66;;;-2.92
19568;BMP280;9930;49.240;8.548;2022-12-18T01:12:45;101839.78;;;-2.88
19568;BMP280;9930;49.240;8.548;2022-12-18T01:15:13;101845.13;;;-2.92
19568;BMP280;9930;49.240;8.548;2022-12-18T01:17:40;101837.50;;;-3.01
19568;BMP280;9930;49.240;8.548;2022-12-18T01:20:14;101829.81;;;-3.03
19568;BMP280;9930;49.240;8.548;2022-12-18T01:22:44;101824.28;;;-3.00
19568;BMP280;9930;49.240;8.548;2022-12-18T01:25:13;101838.91;;;-2.96
19568;BMP280;9930;49.240;8.548;2022-12-18T01:27:41;101829.28;;;-3.00
19568;BMP280;9930;49.240;8.548;2022-12-18T01:30:10;101836.75;;;-2.93
19568;BMP280;9930;49.240;8.548;2022-12-18T01:32:40;101819.84;;;-3.03
19568;BMP280;9930;49.240;8.548;2022-12-18T01:35:10;101836.41;;;-2.96
19568;BMP280;9930;49.240;8.548;2022-12-18T01:37:43;101831.94;;;-2.99
19568;BMP280;9930;49.240;8.548;2022-12-18T01:40:10;101829.63;;;-2.97
19568;BMP280;9930;49.240;8.548;2022-12-18T01:42:42;101809.34;;;-3.07
19568;BMP280;9930;49.240;8.548;2022-12-18T01:47:49;101826.63;;;-3.09
19568;BMP280;9930;49.240;8.548;2022-12-18T01:50:32;101836.63;;;-3.09
19568;BMP280;9930;49.240;8.548;2022-12-18T01:53:13;101846.25;;;-3.12
19568;BMP280;9930;49.240;8.548;2022-12-18T01:55:59;101843.41;;;-3.15
19568;BMP280;9930;49.240;8.548;2022-12-18T02:01:09;101848.41;;;-3.15
19568;BMP280;9930;49.240;8.548;2022-12-18T02:03:42;101855.88;;;-3.15
19568;BMP280;9930;49.240;8.548;2022-12-18T02:08:52;101831.47;;;-3.17
19568;BMP280;9930;49.240;8.548;2022-12-18T02:12:19;101830.03;;;-3.15
19568;BMP280;9930;49.240;8.548;2022-12-18T02:14:45;101820.78;;;-3.16
19568;BMP280;9930;49.240;8.548;2022-12-18T02:17:22;101813.31;;;-3.23
19568;BMP280;9930;49.240;8.548;2022-12-18T02:23:31;101841.13;;;-3.28
19568;BMP280;9930;49.240;8.548;2022-12-18T02:26:30;101833.13;;;-3.39
19568;BMP280;9930;49.240;8.548;2022-12-18T02:29:10;101840.78;;;-3.38
19568;BMP280;9930;49.240;8.548;2022-12-18T02:31:50;101835.06;;;-3.44
19568;BMP280;9930;49.240;8.548;2022-12-18T02:34:26;101834.53;;;-3.41
19568;BMP280;9930;49.240;8.548;2022-12-18T02:36:56;101844.50;;;-3.34
19568;BMP280;9930;49.240;8.548;2022-12-18T02:39:27;101828.47;;;-3.43
19568;BMP280;9930;49.240;8.548;2022-12-18T02:41:55;101831.50;;;-3.39
19568;BMP280;9930;49.240;8.548;2022-12-18T02:44:21;101819.94;;;-3.45
19568;BMP280;9930;49.240;8.548;2022-12-18T02:46:52;101826.34;;;-3.40
19568;BMP280;9930;49.240;8.548;2022-12-18T02:56:26;101851.28;;;-3.47
19568;BMP280;9930;49.240;8.548;2022-12-18T02:59:13;101846.47;;;-3.46
19568;BMP280;9930;49.240;8.548;2022-12-18T03:02:20;101840.94;;;-3.43
19568;BMP280;9930;49.240;8.548;2022-12-18T03:07:46;101828.66;;;-3.42
19568;BMP280;9930;49.240;8.548;2022-12-18T03:10:20;101814.59;;;-3.48
19568;BMP280;9930;49.240;8.548;2022-12-18T03:13:03;101830.63;;;-3.39
19568;BMP280;9930;49.240;8.548;2022-12-18T03:15:44;101834.72;;;-3.40
19568;BMP280;9930;49.240;8.548;2022-12-18T03:18:20;101836.50;;;-3.39
19568;BMP280;9930;49.240;8.548;2022-12-18T03:20:52;101829.03;;;-3.46
19568;BMP280;9930;49.240;8.548;2022-12-18T03:23:26;101844.16;;;-3.37
19568;BMP280;9930;49.240;8.548;2022-12-18T03:25:58;101844.88;;;-3.38
19568;BMP280;9930;49.240;8.548;2022-12-18T03:28:30;101838.28;;;-3.38
19568;BMP280;9930;49.240;8.548;2022-12-18T03:31:02;101830.81;;;-3.45
19568;BMP280;9930;49.240;8.548;2022-12-18T03:36:10;101833.84;;;-3.47
19568;BMP280;9930;49.240;8.548;2022-12-18T03:38:39;101825.81;;;-3.52
19568;BMP280;9930;49.240;8.548;2022-12-18T03:41:29;101832.41;;;-3.52
19568;BMP280;9930;49.240;8.548;2022-12-18T03:44:26;101827.78;;;-3.49
19568;BMP280;9930;49.240;8.548;2022-12-18T03:47:18;101827.41;;;-3.52
19568;BMP280;9930;49.240;8.548;2022-12-18T03:52:57;101840.59;;;-3.61
19568;BMP280;9930;49.240;8.548;2022-12-18T03:55:33;101836.16;;;-3.63
19568;BMP280;9930;49.240;8.548;2022-12-18T03:58:02;101835.28;;;-3.64
19568;BMP280;9930;49.240;8.548;2022-12-18T04:00:30;101819.41;;;-3.71
19568;BMP280;9930;49.240;8.548;2022-12-18T04:02:59;101799.81;;;-3.82
19568;BMP280;9930;49.240;8.548;2022-12-18T04:05:30;101816.91;;;-3.71
19568;BMP280;9930;49.240;8.548;2022-12-18T04:08:00;101823.16;;;-3.68
19568;BMP280;9930;49.240;8.548;2022-12-18T04:10:29;101824.59;;;-3.70
19568;BMP280;9930;49.240;8.548;2022-12-18T04:12:57;101816.75;;;-3.73
19568;BMP280;9930;49.240;8.548;2022-12-18T04:15:23;101835.97;;;-3.65
19568;BMP280;9930;49.240;8.548;2022-12-18T04:17:50;101809.44;;;-3.78
19568;BMP280;9930;49.240;8.548;2022-12-18T04:20:19;101821.72;;;-3.73
19568;BMP280;9930;49.240;8.548;2022-12-18T04:22:50;101811.03;;;-3.79
19568;BMP280;9930;49.240;8.548;2022-12-18T04:25:18;101813.72;;;-3.84
19568;BMP280;9930;49.240;8.548;2022-12-18T04:27:44;101830.28;;;-3.78
19568;BMP280;9930;49.240;8.548;2022-12-18T04:30:10;101832.78;;;-3.78
19568;BMP280;9930;49.240;8.548;2022-12-18T04:32:42;101811.75;;;-3.87
19568;BMP280;9930;49.240;8.548;2022-12-18T04:35:10;101822.63;;;-3.79
19568;BMP280;9930;49.240;8.548;2022-12-18T04:37:40;101821.19;;;-3.77
19568;BMP280;9930;49.240;8.548;2022-12-18T04:40:10;101816.03;;;-3.79
19568;BMP280;9930;49.240;8.548;2022-12-18T04:42:43;101792.88;;;-3.99
19568;BMP280;9930;49.240;8.548;2022-12-18T04:45:11;101828.31;;;-3.80
19568;BMP280;9930;49.240;8.548;2022-12-18T04:47:40;101828.13;;;-3.82
19568;BMP280;9930;49.240;8.548;2022-12-18T04:50:10;101829.03;;;-3.81
19568;BMP280;9930;49.240;8.548;2022-12-18T04:52:40;101806.25;;;-3.92
19568;BMP280;9930;49.240;8.548;2022-12-18T04:55:10;101823.34;;;-3.80
19568;BMP280;9930;49.240;8.548;2022-12-18T04:57:43;101811.59;;;-3.81
19568;BMP280;9930;49.240;8.548;2022-12-18T05:00:11;101795.19;;;-3.86
19568;BMP280;9930;49.240;8.548;2022-12-18T05:02:40;101806.59;;;-3.81
19568;BMP280;9930;49.240;8.548;2022-12-18T05:05:10;101811.41;;;-3.83
19568;BMP280;9930;49.240;8.548;2022-12-18T05:07:40;101825.81;;;-3.80
19568;BMP280;9930;49.240;8.548;2022-12-18T05:10:10;101825.13;;;-3.79
19568;BMP280;9930;49.240;8.548;2022-12-18T05:12:40;101824.94;;;-3.81
19568;BMP280;9930;49.240;8.548;2022-12-18T05:15:26;101829.91;;;-3.81
19568;BMP280;9930;49.240;8.548;2022-12-18T05:17:52;101814.97;;;-3.88
19568;BMP280;9930;49.240;8.548;2022-12-18T05:20:20;101838.66;;;-3.77
19568;BMP280;9930;49.240;8.548;2022-12-18T05:22:49;101822.97;;;-3.83
19568;BMP280;9930;49.240;8.548;2022-12-18T05:25:15;101831.69;;;-3.80
19568;BMP280;9930;49.240;8.548;2022-12-18T05:27:44;101845.78;;;-3.73
19568;BMP280;9930;49.240;8.548;2022-12-18T05:30:12;101838.47;;;-3.72
19568;BMP280;9930;49.240;8.548;2022-12-18T05:32:41;101842.56;;;-3.65
19568;BMP280;9930;49.240;8.548;2022-12-18T05:35:12;101826.38;;;-3.69
19568;BMP280;9930;49.240;8.548;2022-12-18T05:37:42;101817.81;;;-3.64
19568;BMP280;9930;49.240;8.548;2022-12-18T05:40:12;101806.41;;;-3.62
19568;BMP280;9930;49.240;8.548;2022-12-18T05:42:40;101808.00;;;-3.55
19568;BMP280;9930;49.240;8.548;2022-12-18T05:45:10;101814.41;;;-3.50
19568;BMP280;9930;49.240;8.548;2022-12-18T05:47:40;101816.53;;;-3.46
19568;BMP280;9930;49.240;8.548;2022-12-18T05:50:10;101806.75;;;-3.51
19568;BMP280;9930;49.240;8.548;2022-12-18T05:52:42;101817.44;;;-3.38
19568;BMP280;9930;49.240;8.548;2022-12-18T05:55:10;101812.63;;;-3.44
19568;BMP280;9930;49.240;8.548;2022-12-18T05:57:39;101812.97;;;-3.34
19568;BMP280;9930;49.240;8.548;2022-12-18T06:00:09;101806.72;;;-3.30
19568;BMP280;9930;49.240;8.548;2022-12-18T06:02:40;101793.72;;;-3.35
19568;BMP280;9930;49.240;8.548;2022-12-18T06:05:09;101802.44;;;-3.31
19568;BMP280;9930;49.240;8.548;2022-12-18T06:07:39;101808.13;;;-3.25
19568;BMP280;9930;49.240;8.548;2022-12-18T06:10:13;101827.72;;;-3.21
19568;BMP280;9930;49.240;8.548;2022-12-18T06:12:41;101839.66;;;-3.18
19568;BMP280;9930;49.240;8.548;2022-12-18T06:15:08;101832.53;;;-3.22
19568;BMP280;9930;49.240;8.548;2022-12-18T06:17:34;101848.22;;;-3.16
19568;BMP280;9930;49.240;8.548;2022-12-18T06:20:03;101851.97;;;-3.13
19568;BMP280;9930;49.240;8.548;2022-12-18T06:22:32;101855.50;;;-3.11
19568;BMP280;9930;49.240;8.548;2022-12-18T06:24:58;101854.81;;;-3.10
19568;BMP280;9930;49.240;8.548;2022-12-18T06:27:27;101848.56;;;-3.13
19568;BMP280;9930;49.240;8.548;2022-12-18T06:29:53;101856.03;;;-3.06
19568;BMP280;9930;49.240;8.548;2022-12-18T06:32:19;101854.44;;;-3.06
19568;BMP280;9930;49.240;8.548;2022-12-18T06:34:44;101852.28;;;-3.03
19568;BMP280;9930;49.240;8.548;2022-12-18T06:37:10;101862.63;;;-3.00
19568;BMP280;9930;49.240;8.548;2022-12-18T06:39:40;101844.47;;;-3.06
19568;BMP280;9930;49.240;8.548;2022-12-18T06:42:10;101851.03;;;-2.99
19568;BMP280;9930;49.240;8.548;2022-12-18T06:44:45;101857.09;;;-2.97
19568;BMP280;9930;49.240;8.548;2022-12-18T06:47:15;101865.13;;;-3.00
19568;BMP280;9930;49.240;8.548;2022-12-18T06:49:41;101851.06;;;-3.06
19568;BMP280;9930;49.240;8.548;2022-12-18T06:52:10;101855.88;;;-3.08
19568;BMP280;9930;49.240;8.548;2022-12-18T06:54:40;101851.78;;;-3.07
19568;BMP280;9930;49.240;8.548;2022-12-18T06:57:10;101877.94;;;-2.97
19568;BMP280;9930;49.240;8.548;2022-12-18T06:59:42;101872.97;;;-3.04
19568;BMP280;9930;49.240;8.548;2022-12-18T07:02:11;101870.66;;;-3.02
19568;BMP280;9930;49.240;8.548;2022-12-18T07:04:42;101866.56;;;-3.09
19568;BMP280;9930;49.240;8.548;2022-12-18T07:07:14;101871.53;;;-3.02
19568;BMP280;9930;49.240;8.548;2022-12-18T07:09:40;101875.84;;;-3.08
19568;BMP280;9930;49.240;8.548;2022-12-18T07:12:09;101893.28;;;-3.01
19568;BMP280;9930;49.240;8.548;2022-12-18T07:14:39;101891.69;;;-3.00
19568;BMP280;9930;49.240;8.548;2022-12-18T07:17:05;101890.81;;;-3.01
19568;BMP280;9930;49.240;8.548;2022-12-18T07:19:32;101894.19;;;-3.00
19568;BMP280;9930;49.240;8.548;2022-12-18T07:21:58;101893.28;;;-3.01
19568;BMP280;9930;49.240;8.548;2022-12-18T07:24:24;101899.19;;;-3.00
19568;BMP280;9930;49.240;8.548;2022-12-18T07:26:52;101879.75;;;-3.10
19568;BMP280;9930;49.240;8.548;2022-12-18T07:29:20;101900.44;;;-3.04
19568;BMP280;9930;49.240;8.548;2022-12-18T07:31:46;101902.22;;;-3.03
19568;BMP280;9930;49.240;8.548;2022-12-18T07:34:15;101896.34;;;-3.10
19568;BMP280;9930;49.240;8.548;2022-12-18T07:36:41;101908.09;;;-3.02
19568;BMP280;9930;49.240;8.548;2022-12-18T07:39:12;101915.75;;;-3.01
19568;BMP280;9930;49.240;8.548;2022-12-18T07:41:41;101909.53;;;-3.04
19568;BMP280;9930;49.240;8.548;2022-12-18T07:44:30;101925.03;;;-3.00
19568;BMP280;9930;49.240;8.548;2022-12-18T07:46:57;101925.91;;;-2.99
19568;BMP280;9930;49.240;8.548;2022-12-18T07:49:23;101927.16;;;-2.96
19568;BMP280;9930;49.240;8.548;2022-12-18T07:51:51;101925.03;;;-3.00
19568;BMP280;9930;49.240;8.548;2022-12-18T07:54:24;101925.72;;;-2.94
19568;BMP280;9930;49.240;8.548;2022-12-18T07:56:51;101924.31;;;-2.91
19568;BMP280;9930;49.240;8.548;2022-12-18T07:59:19;101930.38;;;-2.89
19568;BMP280;9930;49.240;8.548;2022-12-18T08:01:45;101933.03;;;-2.88
19568;BMP280;9930;49.240;8.548;2022-12-18T08:04:10;101921.63;;;-2.93
19568;BMP280;9930;49.240;8.548;2022-12-18T08:06:39;101935.88;;;-2.85
19568;BMP280;9930;49.240;8.548;2022-12-18T08:09:07;101943.91;;;-2.80
19568;BMP280;9930;49.240;8.548;2022-12-18T08:11:35;101925.91;;;-2.85
19568;BMP280;9930;49.240;8.548;2022-12-18T08:14:03;101928.56;;;-2.83
19568;BMP280;9930;49.240;8.548;2022-12-18T08:16:29;101929.81;;;-2.80
19568;BMP280;9930;49.240;8.548;2022-12-18T08:18:57;101928.03;;;-2.81
19568;BMP280;9930;49.240;8.548;2022-12-18T08:21:29;101927.47;;;-2.71
19568;BMP280;9930;49.240;8.548;2022-12-18T08:23:58;101933.53;;;-2.69
19568;BMP280;9930;49.240;8.548;2022-12-18T08:26:28;101930.16;;;-2.70
19568;BMP280;9930;49.240;8.548;2022-12-18T08:28:55;101935.84;;;-2.64
19568;BMP280;9930;49.240;8.548;2022-12-18T08:31:28;101940.28;;;-2.61
19568;BMP280;9930;49.240;8.548;2022-12-18T08:33:57;101919.59;;;-2.67
19568;BMP280;9930;49.240;8.548;2022-12-18T08:36:24;101939.56;;;-2.53
19568;BMP280;9930;49.240;8.548;2022-12-18T08:38:50;101922.25;;;-2.51
19568;BMP280;9930;49.240;8.548;2022-12-18T08:41:17;101920.59;;;-2.44
19568;BMP280;9930;49.240;8.548;2022-12-18T08:43:48;101903.50;;;-2.48
19568;BMP280;9930;49.240;8.548;2022-12-18T08:46:41;101902.22;;;-2.44
19568;BMP280;9930;49.240;8.548;2022-12-18T08:49:10;101915.38;;;-2.31
19568;BMP280;9930;49.240;8.548;2022-12-18T08:51:41;101913.22;;;-2.28
19568;BMP280;9930;49.240;8.548;2022-12-18T08:54:11;101905.53;;;-2.22
19568;BMP280;9930;49.240;8.548;2022-12-18T08:56:39;101899.44;;;-2.17
19568;BMP280;9930;49.240;8.548;2022-12-18T08:59:09;101892.44;;;-2.13
19568;BMP280;9930;49.240;8.548;2022-12-18T09:01:39;101887.06;;;-2.09
19568;BMP280;9930;49.240;8.548;2022-12-18T09:04:11;101885.06;;;-2.04
19568;BMP280;9930;49.240;8.548;2022-12-18T09:06:42;101883.97;;;-1.99
19568;BMP280;9930;49.240;8.548;2022-12-18T09:09:10;101882.88;;;-1.94
19568;BMP280;9930;49.240;8.548;2022-12-18T09:11:42;101870.34;;;-1.94
19568;BMP280;9930;49.240;8.548;2022-12-18T09:14:10;101867.66;;;-1.88
19568;BMP280;9930;49.240;8.548;2022-12-18T09:16:38;101880.59;;;-1.77
19568;BMP280;9930;49.240;8.548;2022-12-18T09:19:07;101874.72;;;-1.77
19568;BMP280;9930;49.240;8.548;2022-12-18T09:21:38;101876.38;;;-1.62
19568;BMP280;9930;49.240;8.548;2022-12-18T09:24:13;101871.56;;;-1.60
19568;BMP280;9930;49.240;8.548;2022-12-18T09:26:40;101875.44;;;-1.55
19568;BMP280;9930;49.240;8.548;2022-12-18T09:29:09;101881.06;;;-1.42
19568;BMP280;9930;49.240;8.548;2022-12-18T09:31:39;101880.88;;;-1.44
19568;BMP280;9930;49.240;8.548;2022-12-18T09:34:06;101894.56;;;-1.33
19568;BMP280;9930;49.240;8.548;2022-12-18T09:36:33;101909.84;;;-1.23
19568;BMP280;9930;49.240;8.548;2022-12-18T09:39:03;101911.41;;;-1.16
19568;BMP280;9930;49.240;8.548;2022-12-18T09:41:42;101907.94;;;-1.10
19568;BMP280;9930;49.240;8.548;2022-12-18T09:44:23;101906.97;;;-1.03
19568;BMP280;9930;49.240;8.548;2022-12-18T09:50:02;101915.31;;;-0.95
19568;BMP280;9930;49.240;8.548;2022-12-18T09:52:43;101937.72;;;-0.81
19568;BMP280;9930;49.240;8.548;2022-12-18T09:55:24;101937.25;;;-0.70
19568;BMP280;9930;49.240;8.548;2022-12-18T09:58:16;101909.75;;;-0.77
19568;BMP280;9930;49.240;8.548;2022-12-18T10:00:46;101937.09;;;-0.56
19568;BMP280;9930;49.240;8.548;2022-12-18T10:03:15;101922.22;;;-0.54
19568;BMP280;9930;49.240;8.548;2022-12-18T10:08:57;101923.00;;;-0.31
19568;BMP280;9930;49.240;8.548;2022-12-18T10:14:15;101923.56;;;-0.18
19568;BMP280;9930;49.240;8.548;2022-12-18T10:19:27;101916.00;;;-0.02
19568;BMP280;9930;49.240;8.548;2022-12-18T10:22:25;101922.66;;;0.06
19568;BMP280;9930;49.240;8.548;2022-12-18T10:27:56;101903.97;;;0.11
19568;BMP280;9930;49.240;8.548;2022-12-18T10:30:24;101918.75;;;0.17
19568;BMP280;9930;49.240;8.548;2022-12-18T10:32:54;101916.78;;;0.30
19568;BMP280;9930;49.240;8.548;2022-12-18T10:35:25;101904.94;;;0.29
19568;BMP280;9930;49.240;8.548;2022-12-18T10:41:01;101896.31;;;0.43
19568;BMP280;9930;49.240;8.548;2022-12-18T10:48:56;101882.84;;;0.67
19568;BMP280;9930;49.240;8.548;2022-12-18T10:51:39;101879.00;;;0.70
19568;BMP280;9930;49.240;8.548;2022-12-18T10:54:34;101876.53;;;0.79
19568;BMP280;9930;49.240;8.548;2022-12-18T10:57:42;101888.81;;;0.93
19568;BMP280;9930;49.240;8.548;2022-12-18T11:02:49;101895.53;;;1.10
19568;BMP280;9930;49.240;8.548;2022-12-18T11:05:44;101899.81;;;1.19
19568;BMP280;9930;49.240;8.548;2022-12-18T11:08:20;101886.81;;;1.23
19568;BMP280;9930;49.240;8.548;2022-12-18T11:10:49;101885.66;;;1.28
19568;BMP280;9930;49.240;8.548;2022-12-18T11:13:25;101907.84;;;1.41
19568;BMP280;9930;49.240;8.548;2022-12-18T11:15:51;101909.34;;;1.48
19568;BMP280;9930;49.240;8.548;2022-12-18T11:18:22;101900.16;;;1.48
19568;BMP280;9930;49.240;8.548;2022-12-18T11:20:53;101900.16;;;1.57
19568;BMP280;9930;49.240;8.548;2022-12-18T11:23:21;101889.66;;;1.61
19568;BMP280;9930;49.240;8.548;2022-12-18T11:25:58;101893.38;;;1.65
19568;BMP280;9930;49.240;8.548;2022-12-18T11:28:40;101892.19;;;1.70
19568;BMP280;9930;49.240;8.548;2022-12-18T11:33:58;101874.88;;;1.73
19568;BMP280;9930;49.240;8.548;2022-12-18T11:36:43;101888.31;;;1.82
19568;BMP280;9930;49.240;8.548;2022-12-18T11:39:49;101876.50;;;1.81
19568;BMP280;9930;49.240;8.548;2022-12-18T11:42:28;101867.59;;;1.84
19568;BMP280;9930;49.240;8.548;2022-12-18T11:51:24;101876.16;;;1.95
19568;BMP280;9930;49.240;8.548;2022-12-18T11:53:53;101862.25;;;1.90
19568;BMP280;9930;49.240;8.548;2022-12-18T11:56:43;101873.22;;;1.99
19568;BMP280;9930;49.240;8.548;2022-12-18T12:02:11;101859.13;;;2.01
19568;BMP280;9930;49.240;8.548;2022-12-18T12:04:48;101838.44;;;1.95
19568;BMP280;9930;49.240;8.548;2022-12-18T12:34:23;101845.34;;;2.15
19568;BMP280;9930;49.240;8.548;2022-12-18T12:37:15;101844.72;;;2.17
19568;BMP280;9930;49.240;8.548;2022-12-18T12:39:47;101831.56;;;2.11
19568;BMP280;9930;49.240;8.548;2022-12-18T12:45:20;101837.19;;;2.17
19568;BMP280;9930;49.240;8.548;2022-12-18T12:47:50;101837.91;;;2.25
19568;BMP280;9930;49.240;8.548;2022-12-18T12:50:22;101842.63;;;2.31
19568;BMP280;9930;49.240;8.548;2022-12-18T12:52:57;101846.44;;;2.36
19568;BMP280;9930;49.240;8.548;2022-12-18T12:55:27;101831.06;;;2.33
19568;BMP280;9930;49.240;8.548;2022-12-18T13:09:33;101811.31;;;2.46
19568;BMP280;9930;49.240;8.548;2022-12-18T13:12:08;101780.06;;;2.44
19568;BMP280;9930;49.240;8.548;2022-12-18T13:15:20;101787.16;;;2.48
19568;BMP280;9930;49.240;8.548;2022-12-18T13:17:47;101788.16;;;2.50
19568;BMP280;9930;49.240;8.548;2022-12-18T13:20:15;101786.22;;;2.56
19568;BMP280;9930;49.240;8.548;2022-12-18T13:22:47;101794.78;;;2.58
19568;BMP280;9930;49.240;8.548;2022-12-18T13:25:36;101789.75;;;2.58
19568;BMP280;9930;49.240;8.548;2022-12-18T13:28:18;101778.50;;;2.54
19568;BMP280;9930;49.240;8.548;2022-12-18T13:30:47;101785.75;;;2.60
19568;BMP280;9930;49.240;8.548;2022-12-18T13:36:54;101761.78;;;2.55
19568;BMP280;9930;49.240;8.548;2022-12-18T13:41:40;101772.13;;;2.58
19568;BMP280;9930;49.240;8.548;2022-12-18T13:44:25;101772.28;;;2.59
19568;BMP280;9930;49.240;8.548;2022-12-18T13:46:53;101763.25;;;2.53
19568;BMP280;9930;49.240;8.548;2022-12-18T13:49:42;101761.03;;;2.56
19568;BMP280;9930;49.240;8.548;2022-12-18T13:52:28;101767.41;;;2.52
19568;BMP280;9930;49.240;8.548;2022-12-18T13:55:01;101767.28;;;2.51
19568;BMP280;9930;49.240;8.548;2022-12-18T13:57:40;101753.38;;;2.46
19568;BMP280;9930;49.240;8.548;2022-12-18T14:00:26;101755.34;;;2.40
19568;BMP280;9930;49.240;8.548;2022-12-18T14:02:54;101754.31;;;2.38
19568;BMP280;9930;49.240;8.548;2022-12-18T14:05:26;101771.63;;;2.43
19568;BMP280;9930;49.240;8.548;2022-12-18T14:08:01;101784.94;;;2.42
19568;BMP280;9930;49.240;8.548;2022-12-18T14:10:27;101771.53;;;2.33
19568;BMP280;9930;49.240;8.548;2022-12-18T14:12:54;101792.22;;;2.39
19568;BMP280;9930;49.240;8.548;2022-12-18T14:20:51;101768.56;;;2.28
19568;BMP280;9930;49.240;8.548;2022-12-18T14:23:35;101774.63;;;2.31
19568;BMP280;9930;49.240;8.548;2022-12-18T14:26:31;101774.22;;;2.26
19568;BMP280;9930;49.240;8.548;2022-12-18T14:29:17;101756.63;;;2.17
19568;BMP280;9930;49.240;8.548;2022-12-18T14:31:45;101769.66;;;2.22
19568;BMP280;9930;49.240;8.548;2022-12-18T14:34:17;101767.13;;;2.22
19568;BMP280;9930;49.240;8.548;2022-12-18T14:36:53;101764.47;;;2.20
19568;BMP280;9930;49.240;8.548;2022-12-18T14:39:21;101752.66;;;2.11
19568;BMP280;9930;49.240;8.548;2022-12-18T14:41:49;101758.13;;;2.15
19568;BMP280;9930;49.240;8.548;2022-12-18T14:44:15;101768.94;;;2.14
19568;BMP280;9930;49.240;8.548;2022-12-18T14:46:48;101780.50;;;2.12
19568;BMP280;9930;49.240;8.548;2022-12-18T14:49:32;101767.81;;;2.02
19568;BMP280;9930;49.240;8.548;2022-12-18T14:52:00;101776.97;;;2.02
19568;BMP280;9930;49.240;8.548;2022-12-18T14:54:30;101776.38;;;2.04
19568;BMP280;9930;49.240;8.548;2022-12-18T14:57:06;101762.78;;;1.93
19568;BMP280;9930;49.240;8.548;2022-12-18T14:59:40;101759.09;;;1.90
19568;BMP280;9930;49.240;8.548;2022-12-18T15:02:25;101767.81;;;1.93
19568;BMP280;9930;49.240;8.548;2022-12-18T15:07:52;101751.72;;;1.83
19568;BMP280;9930;49.240;8.548;2022-12-18T15:10:21;101756.75;;;1.83
19568;BMP280;9930;49.240;8.548;2022-12-18T15:20:48;101740.38;;;1.69
19568;BMP280;9930;49.240;8.548;2022-12-18T15:26:10;101734.06;;;1.55
19568;BMP280;9930;49.240;8.548;2022-12-18T15:28:52;101730.38;;;1.52
19568;BMP280;9930;49.240;8.548;2022-12-18T15:31:34;101728.59;;;1.51
19568;BMP280;9930;49.240;8.548;2022-12-18T15:34:11;101731.09;;;1.51
19568;BMP280;9930;49.240;8.548;2022-12-18T15:36:43;101741.75;;;1.48
19568;BMP280;9930;49.240;8.548;2022-12-18T15:39:14;101748.28;;;1.46
19568;BMP280;9930;49.240;8.548;2022-12-18T15:41:40;101736.59;;;1.38
19568;BMP280;9930;49.240;8.548;2022-12-18T15:44:26;101742.81;;;1.42
19568;BMP280;9930;49.240;8.548;2022-12-18T15:46:55;101728.63;;;1.34
19568;BMP280;9930;49.240;8.548;2022-12-18T15:49:20;101740.75;;;1.38
19568;BMP280;9930;49.240;8.548;2022-12-18T15:51:52;101738.53;;;1.32
19568;BMP280;9930;49.240;8.548;2022-12-18T15:54:20;101751.69;;;1.38
19568;BMP280;9930;49.240;8.548;2022-12-18T15:57:15;101747.25;;;1.36
19568;BMP280;9930;49.240;8.548;2022-12-18T15:59:55;101745.47;;;1.35
19568;BMP280;9930;49.240;8.548;2022-12-18T16:02:24;101735.28;;;1.33
19568;BMP280;9930;49.240;8.548;2022-12-18T16:04:52;101729.53;;;1.25
19568;BMP280;9930;49.240;8.548;2022-12-18T16:07:20;101738.25;;;1.29
19568;BMP280;9930;49.240;8.548;2022-12-18T16:09:47;101752.28;;;1.36
19568;BMP280;9930;49.240;8.548;2022-12-18T16:12:21;101737.50;;;1.30
19568;BMP280;9930;49.240;8.548;2022-12-18T16:14:50;101721.09;;;1.25
19568;BMP280;9930;49.240;8.548;2022-12-18T16:17:19;101740.00;;;1.39
19568;BMP280;9930;49.240;8.548;2022-12-18T16:19:45;101728.75;;;1.35
19568;BMP280;9930;49.240;8.548;2022-12-18T16:22:26;101741.31;;;1.44
19568;BMP280;9930;49.240;8.548;2022-12-18T16:24:54;101724.91;;;1.39
19568;BMP280;9930;49.240;8.548;2022-12-18T16:27:22;101728.59;;;1.42
19568;BMP280;9930;49.240;8.548;2022-12-18T16:29:49;101738.50;;;1.49
19568;BMP280;9930;49.240;8.548;2022-12-18T16:32:20;101738.78;;;1.52
19568;BMP280;9930;49.240;8.548;2022-12-18T16:34:47;101734.66;;;1.53
19568;BMP280;9930;49.240;8.548;2022-12-18T16:37:14;101734.78;;;1.54
19568;BMP280;9930;49.240;8.548;2022-12-18T16:39:44;101732.56;;;1.57
19568;BMP280;9930;49.240;8.548;2022-12-18T16:42:19;101726.06;;;1.59
19568;BMP280;9930;49.240;8.548;2022-12-18T16:44:49;101717.94;;;1.53
19568;BMP280;9930;49.240;8.548;2022-12-18T16:47:16;101701.22;;;1.54
19568;BMP280;9930;49.240;8.548;2022-12-18T16:49:43;101716.44;;;1.64
19568;BMP280;9930;49.240;8.548;2022-12-18T16:52:13;101720.84;;;1.67
19568;BMP280;9930;49.240;8.548;2022-12-18T16:54:41;101709.91;;;1.66